createdAt,value
2023-02-23T00:00:08.366Z,18.80
2023-02-23T00:02:41.325Z,19.00
2023-02-23T00:05:13.712Z,19.40
2023-02-23T00:07:50.658Z,19.90
2023-02-23T00:10:27.851Z,20.20
2023-02-23T00:13:01.872Z,20.60
2023-02-23T00:15:33.133Z,20.80
2023-02-23T00:18:08.967Z,20.60
2023-02-23T00:20:48.999Z,20.80
2023-02-23T00:23:19.733Z,21.10
2023-02-23T00:25:53.400Z,21.30
2023-02-23T00:28:24.154Z,21.20
2023-02-23T00:30:55.481Z,21.10
2023-02-23T00:33:26.574Z,21.00
2023-02-23T00:35:57.836Z,20.80
2023-02-23T00:38:40.064Z,20.60
2023-02-23T00:41:15.419Z,20.70
2023-02-23T00:43:52.689Z,20.60
2023-02-23T00:46:25.094Z,20.70
2023-02-23T00:49:00.921Z,20.50
2023-02-23T00:51:37.072Z,20.30
2023-02-23T00:54:09.740Z,20.20
2023-02-23T00:56:43.018Z,20.10
2023-02-23T00:59:14.843Z,20.00
2023-02-23T01:01:46.180Z,20.00
2023-02-23T01:04:18.540Z,20.00
2023-02-23T01:06:51.955Z,20.10
2023-02-23T01:09:30.886Z,20.20
2023-02-23T01:12:10.375Z,20.30
2023-02-23T01:14:41.517Z,20.50
2023-02-23T01:17:21.896Z,20.70
2023-02-23T01:19:54.386Z,20.80
2023-02-23T01:22:26.201Z,20.90
2023-02-23T01:24:56.941Z,20.90
2023-02-23T01:27:28.618Z,20.90
2023-02-23T01:30:01.324Z,20.90
2023-02-23T01:32:32.605Z,21.00
2023-02-23T01:35:03.615Z,20.90
2023-02-23T01:37:37.174Z,20.90
2023-02-23T01:40:13.731Z,20.90
2023-02-23T01:42:50.034Z,21.10
2023-02-23T01:45:34.051Z,21.40
2023-02-23T01:48:26.522Z,21.70
2023-02-23T01:51:06.585Z,21.70
2023-02-23T01:53:43.305Z,21.70
2023-02-23T01:56:24.820Z,21.60
2023-02-23T01:59:00.897Z,21.40
2023-02-23T02:01:32.094Z,21.20
2023-02-23T02:04:09.036Z,21.20
2023-02-23T02:06:41.570Z,21.30
2023-02-23T02:09:20.574Z,21.70
2023-02-23T02:11:55.825Z,21.90
2023-02-23T02:14:34.517Z,22.10
2023-02-23T02:17:27.183Z,22.20
2023-02-23T02:20:35.218Z,22.40
2023-02-23T02:23:11.707Z,22.50
2023-02-23T02:25:49.628Z,22.50
2023-02-23T02:28:49.231Z,22.40
2023-02-23T02:31:51.645Z,22.20
2023-02-23T02:34:45.450Z,22.20
2023-02-23T02:37:31.303Z,22.00
2023-02-23T02:40:24.010Z,22.10
2023-02-23T02:43:17.861Z,22.10
2023-02-23T02:46:28.588Z,22.10
2023-02-23T02:49:06.317Z,22.10
2023-02-23T02:51:49.141Z,22.10
2023-02-23T02:54:34.415Z,22.10
2023-02-23T02:57:08.274Z,22.30
2023-02-23T03:00:16.254Z,22.30
2023-02-23T03:03:04.482Z,22.30
2023-02-23T03:06:14.514Z,22.30
2023-02-23T03:09:21.413Z,22.40
2023-02-23T03:12:58.285Z,22.30
2023-02-23T03:16:18.137Z,22.30
2023-02-23T03:19:40.430Z,22.30
2023-02-23T03:22:48.926Z,22.30
2023-02-23T03:25:51.057Z,22.50
2023-02-23T03:28:48.145Z,22.50
2023-02-23T03:31:47.217Z,22.50
2023-02-23T03:35:19.647Z,22.50
2023-02-23T03:38:35.063Z,22.40
2023-02-23T03:41:55.505Z,22.50
2023-02-23T03:45:12.964Z,22.70
2023-02-23T03:48:28.464Z,22.70
2023-02-23T03:51:22.655Z,22.80
2023-02-23T03:54:25.180Z,22.80
2023-02-23T03:57:20.058Z,22.70
2023-02-23T04:00:22.241Z,22.70
2023-02-23T04:03:15.022Z,22.70
2023-02-23T04:06:05.465Z,22.90
2023-02-23T04:08:57.603Z,23.20
2023-02-23T04:11:49.333Z,23.30
2023-02-23T04:14:42.363Z,23.30
2023-02-23T04:17:14.648Z,23.40
2023-02-23T04:20:05.482Z,23.50
2023-02-23T04:22:39.327Z,23.80
2023-02-23T04:25:11.121Z,24.00
2023-02-23T04:27:42.932Z,23.90
2023-02-23T04:30:13.874Z,23.80
2023-02-23T04:32:46.267Z,23.70
2023-02-23T04:35:17.397Z,23.60
2023-02-23T04:37:48.107Z,23.70
2023-02-23T04:40:20.096Z,23.80
2023-02-23T04:42:51.827Z,23.80
2023-02-23T04:45:24.207Z,23.70
2023-02-23T04:47:57.291Z,23.50
2023-02-23T04:50:28.621Z,23.40
2023-02-23T04:53:00.315Z,23.50
2023-02-23T04:55:31.438Z,23.40
2023-02-23T04:58:04.085Z,23.40
2023-02-23T05:00:36.338Z,23.20
2023-02-23T05:03:07.057Z,23.10
2023-02-23T05:05:37.701Z,22.90
2023-02-23T05:08:08.758Z,22.90
2023-02-23T05:10:40.464Z,22.90
2023-02-23T05:13:11.245Z,23.00
2023-02-23T05:15:42.441Z,23.10
2023-02-23T05:18:14.017Z,23.20
2023-02-23T05:20:48.327Z,23.20
2023-02-23T05:23:19.226Z,23.20
2023-02-23T05:25:50.852Z,23.20
2023-02-23T05:28:21.933Z,23.20
2023-02-23T05:30:52.848Z,23.20
2023-02-23T05:33:25.030Z,23.20
2023-02-23T05:35:55.836Z,23.10
2023-02-23T05:38:28.917Z,23.00
2023-02-23T05:40:59.708Z,22.90
2023-02-23T05:43:30.434Z,22.80
2023-02-23T05:46:01.761Z,22.70
2023-02-23T05:48:32.429Z,22.70
2023-02-23T05:51:07.955Z,22.60
2023-02-23T05:53:38.606Z,22.60
2023-02-23T05:56:11.017Z,22.50
2023-02-23T05:58:42.420Z,22.40
2023-02-23T06:01:13.776Z,22.20
2023-02-23T06:03:46.462Z,22.20
2023-02-23T06:06:17.514Z,22.10
2023-02-23T06:08:49.780Z,21.90
2023-02-23T06:11:20.641Z,21.90
2023-02-23T06:13:51.520Z,21.90
2023-02-23T06:16:23.131Z,21.80
2023-02-23T06:18:53.855Z,21.70
2023-02-23T06:21:24.653Z,21.70
2023-02-23T06:23:55.267Z,21.60
2023-02-23T06:26:25.498Z,21.50
2023-02-23T06:28:55.824Z,21.50
2023-02-23T06:31:26.455Z,21.50
2023-02-23T06:33:56.758Z,21.40
2023-02-23T06:36:27.143Z,21.50
2023-02-23T06:39:01.598Z,21.40
2023-02-23T06:41:32.910Z,21.50
2023-02-23T06:44:07.839Z,21.40
2023-02-23T06:46:38.222Z,21.30
2023-02-23T06:49:09.282Z,21.30
2023-02-23T06:51:39.537Z,21.30
2023-02-23T06:54:09.845Z,21.30
2023-02-23T06:56:40.492Z,21.20
2023-02-23T06:59:11.330Z,21.30
2023-02-23T07:01:41.777Z,21.30
2023-02-23T07:04:12.069Z,21.30
2023-02-23T07:06:42.324Z,21.20
2023-02-23T07:09:12.643Z,21.20
2023-02-23T07:11:43.830Z,21.20
2023-02-23T07:14:21.536Z,21.20
2023-02-23T07:16:56.839Z,21.10
2023-02-23T07:19:27.709Z,21.10
2023-02-23T07:21:58.472Z,20.90
2023-02-23T07:24:30.265Z,20.90
2023-02-23T07:27:01.817Z,20.80
2023-02-23T07:29:33.540Z,20.70
2023-02-23T07:32:04.015Z,20.60
2023-02-23T07:34:35.940Z,20.50
2023-02-23T07:37:06.499Z,20.50
2023-02-23T07:39:37.479Z,20.50
2023-02-23T07:42:07.844Z,20.50
2023-02-23T07:44:38.198Z,20.60
2023-02-23T07:47:09.670Z,20.60
2023-02-23T07:49:39.940Z,20.60
2023-02-23T07:52:10.390Z,20.60
2023-02-23T07:54:40.712Z,20.60
2023-02-23T07:57:10.991Z,20.50
2023-02-23T07:59:41.672Z,20.50
2023-02-23T08:02:15.292Z,20.50
2023-02-23T08:04:46.241Z,20.50
2023-02-23T08:07:16.537Z,20.40
2023-02-23T08:09:50.763Z,20.40
2023-02-23T08:12:22.760Z,20.40
2023-02-23T08:14:52.990Z,20.40
2023-02-23T08:17:23.449Z,20.40
2023-02-23T08:19:53.685Z,20.30
2023-02-23T08:22:40.528Z,20.20
2023-02-23T08:25:18.048Z,20.10
2023-02-23T08:27:48.546Z,20.00
2023-02-23T08:30:19.002Z,19.70
2023-02-23T08:32:49.400Z,19.50
2023-02-23T08:35:21.867Z,19.40
2023-02-23T08:37:52.860Z,19.40
2023-02-23T08:40:24.685Z,19.30
2023-02-23T08:42:56.211Z,19.30
2023-02-23T08:45:31.036Z,19.20
2023-02-23T08:48:01.497Z,19.20
2023-02-23T08:50:32.061Z,19.10
2023-02-23T08:53:02.916Z,19.00
2023-02-23T08:55:34.694Z,19.00
2023-02-23T08:58:07.102Z,18.90
2023-02-23T09:00:37.854Z,18.90
2023-02-23T09:03:09.781Z,18.80
2023-02-23T09:05:41.165Z,18.70
2023-02-23T09:08:15.536Z,18.70
2023-02-23T09:10:47.185Z,18.70
2023-02-23T09:13:21.126Z,18.60
2023-02-23T09:15:51.613Z,18.50
2023-02-23T09:18:21.888Z,18.50
2023-02-23T09:20:52.392Z,18.40
2023-02-23T09:23:22.690Z,18.40
2023-02-23T09:25:52.979Z,18.40
2023-02-23T09:28:25.161Z,18.40
2023-02-23T09:30:55.427Z,18.40
2023-02-23T09:33:25.676Z,18.30
2023-02-23T09:35:56.025Z,18.30
2023-02-23T09:38:29.768Z,18.20
2023-02-23T09:41:00.340Z,18.20
2023-02-23T09:43:57.379Z,18.20
2023-02-23T09:46:44.104Z,18.10
2023-02-23T09:49:19.949Z,18.00
2023-02-23T09:51:59.161Z,18.00
2023-02-23T09:54:35.380Z,18.00
2023-02-23T09:57:09.114Z,17.90
2023-02-23T09:59:39.415Z,17.90
2023-02-23T10:02:41.384Z,17.80
2023-02-23T10:05:15.033Z,17.80
2023-02-23T10:08:14.254Z,17.60
2023-02-23T10:10:48.678Z,17.60
2023-02-23T10:13:41.725Z,17.50
2023-02-23T10:16:41.188Z,17.50
2023-02-23T10:19:46.351Z,17.40
2023-02-23T10:22:18.670Z,17.40
2023-02-23T10:24:59.886Z,17.40
2023-02-23T10:27:40.646Z,17.40
2023-02-23T10:30:27.831Z,17.40
2023-02-23T10:33:30.081Z,17.40
2023-02-23T10:36:13.825Z,17.30
2023-02-23T10:38:47.860Z,17.30
2023-02-23T10:41:20.129Z,17.30
2023-02-23T10:43:51.178Z,17.20
2023-02-23T10:46:26.113Z,17.20
2023-02-23T10:48:58.736Z,17.20
2023-02-23T10:51:36.143Z,17.20
2023-02-23T10:54:40.162Z,17.20
2023-02-23T10:57:11.898Z,17.10
2023-02-23T11:00:00.175Z,17.10
2023-02-23T11:02:32.765Z,17.10
2023-02-23T11:05:03.793Z,17.00
2023-02-23T11:07:35.950Z,17.00
2023-02-23T11:10:29.130Z,16.90
2023-02-23T11:13:00.102Z,16.90
2023-02-23T11:15:50.962Z,16.80
2023-02-23T11:18:29.454Z,16.80
2023-02-23T11:21:01.841Z,16.70
2023-02-23T11:23:40.777Z,16.70
2023-02-23T11:26:32.266Z,16.70
2023-02-23T11:29:25.046Z,16.70
2023-02-23T11:32:00.252Z,16.60
2023-02-23T11:34:40.346Z,16.60
2023-02-23T11:37:23.591Z,16.60
2023-02-23T11:39:56.739Z,16.60
2023-02-23T11:42:40.664Z,16.50
2023-02-23T11:45:26.182Z,16.60
2023-02-23T11:48:01.026Z,16.60
2023-02-23T11:50:40.883Z,16.60
2023-02-23T11:53:21.094Z,16.60
2023-02-23T11:56:00.586Z,16.60
2023-02-23T11:58:44.571Z,16.50
2023-02-23T12:01:31.118Z,16.40
2023-02-23T12:04:01.662Z,16.40
2023-02-23T12:06:43.958Z,16.40
2023-02-23T12:09:26.200Z,16.40
2023-02-23T12:12:19.885Z,16.40
2023-02-23T12:14:57.817Z,16.40
2023-02-23T12:17:42.156Z,16.40
2023-02-23T12:20:32.335Z,16.30
2023-02-23T12:23:19.691Z,16.30
2023-02-23T12:25:54.380Z,16.30
2023-02-23T12:29:00.845Z,16.30
2023-02-23T12:31:46.855Z,16.30
2023-02-23T12:34:44.629Z,16.20
2023-02-23T12:37:52.370Z,16.20
2023-02-23T12:40:30.566Z,16.10
2023-02-23T12:43:24.909Z,16.20
2023-02-23T12:46:13.189Z,16.10
2023-02-23T12:49:18.715Z,16.10
2023-02-23T12:52:30.744Z,16.00
2023-02-23T12:55:01.632Z,15.90
2023-02-23T12:57:59.589Z,16.00
2023-02-23T13:00:55.255Z,15.90
2023-02-23T13:06:55.759Z,15.80
2023-02-23T13:09:42.793Z,15.80
2023-02-23T13:12:34.310Z,15.80
2023-02-23T13:15:32.312Z,15.70
2023-02-23T13:18:25.721Z,15.70
2023-02-23T13:21:20.412Z,15.60
2023-02-23T13:24:20.644Z,15.50
2023-02-23T13:27:23.009Z,15.50
2023-02-23T13:29:56.940Z,15.40
2023-02-23T13:32:36.368Z,15.40
2023-02-23T13:35:09.666Z,15.40
2023-02-23T13:37:56.910Z,15.40
2023-02-23T13:40:50.639Z,15.30
2023-02-23T13:43:44.385Z,15.20
2023-02-23T13:46:38.806Z,15.20
2023-02-23T13:49:30.741Z,15.20
2023-02-23T13:52:19.903Z,15.10
2023-02-23T13:55:05.729Z,15.10
2023-02-23T13:57:40.139Z,15.00
2023-02-23T14:00:24.978Z,15.00
2023-02-23T14:03:02.379Z,15.00
2023-02-23T14:05:44.573Z,14.90
2023-02-23T14:08:36.414Z,14.90
2023-02-23T14:11:09.822Z,14.90
2023-02-23T14:14:04.967Z,14.90
2023-02-23T14:16:35.453Z,14.90
2023-02-23T14:19:18.449Z,14.90
2023-02-23T14:22:16.852Z,14.80
2023-02-23T14:24:49.938Z,14.80
2023-02-23T14:27:40.728Z,14.80
2023-02-23T14:30:19.095Z,14.80
2023-02-23T14:33:13.097Z,14.80
2023-02-23T14:35:56.059Z,14.80
2023-02-23T14:38:47.059Z,14.80
2023-02-23T14:41:30.734Z,14.80
2023-02-23T14:44:34.484Z,14.80
2023-02-23T14:47:12.098Z,14.90
2023-02-23T14:50:09.295Z,14.90
2023-02-23T14:52:44.534Z,14.90
2023-02-23T14:55:50.897Z,14.80
2023-02-23T14:59:00.238Z,14.80
2023-02-23T15:01:47.736Z,14.80
2023-02-23T15:04:27.467Z,14.80
2023-02-23T15:07:00.697Z,14.80
2023-02-23T15:09:49.534Z,14.80
2023-02-23T15:12:35.930Z,14.80
2023-02-23T15:15:33.194Z,14.80
2023-02-23T15:18:12.521Z,14.90
2023-02-23T15:20:56.529Z,14.90
2023-02-23T15:23:30.369Z,14.90
2023-02-23T15:26:18.823Z,14.80
2023-02-23T15:28:56.902Z,14.90
2023-02-23T15:31:33.911Z,14.80
2023-02-23T15:34:17.894Z,14.80
2023-02-23T15:37:08.154Z,14.90
2023-02-23T15:40:04.939Z,14.90
2023-02-23T15:42:40.139Z,15.00
2023-02-23T15:45:46.988Z,15.00
2023-02-23T15:48:25.570Z,15.10
2023-02-23T15:51:18.705Z,15.10
2023-02-23T15:53:49.703Z,15.20
2023-02-23T15:56:38.147Z,15.30
2023-02-23T15:59:39.890Z,15.30
2023-02-23T16:02:22.867Z,15.30
2023-02-23T16:05:02.703Z,15.20
2023-02-23T16:07:48.038Z,15.20
2023-02-23T16:10:25.511Z,15.10
2023-02-23T16:12:57.507Z,15.00
2023-02-23T16:15:39.181Z,15.00
2023-02-23T16:18:18.916Z,14.90
2023-02-23T16:21:10.885Z,14.80
2023-02-23T16:23:50.993Z,14.70
2023-02-23T16:26:42.693Z,14.70
2023-02-23T16:29:31.528Z,14.60
2023-02-23T16:32:30.797Z,14.50
2023-02-23T16:35:23.245Z,14.50
2023-02-23T16:38:08.854Z,14.40
2023-02-23T16:40:40.314Z,14.40
2023-02-23T16:43:16.168Z,14.30
2023-02-23T16:45:51.594Z,14.20
2023-02-23T16:48:29.525Z,14.20
2023-02-23T16:51:17.722Z,14.10
2023-02-23T16:53:52.488Z,14.00
2023-02-23T16:56:27.844Z,13.90
2023-02-23T16:59:06.098Z,13.90
2023-02-23T17:01:36.422Z,13.90
2023-02-23T17:04:08.409Z,13.90
2023-02-23T17:06:39.920Z,13.80
2023-02-23T17:09:12.294Z,13.80
2023-02-23T17:11:46.874Z,13.70
2023-02-23T17:14:33.521Z,13.70
2023-02-23T17:17:05.167Z,13.60
2023-02-23T17:19:35.458Z,13.60
2023-02-23T17:22:10.649Z,13.60
2023-02-23T17:24:46.121Z,13.60
2023-02-23T17:27:18.103Z,13.50
2023-02-23T17:29:50.319Z,13.50
2023-02-23T17:32:26.620Z,13.40
2023-02-23T17:35:01.124Z,13.40
2023-02-23T17:37:43.254Z,13.40
2023-02-23T17:40:33.211Z,13.30
2023-02-23T17:43:12.305Z,13.20
2023-02-23T17:45:44.292Z,13.30
2023-02-23T17:48:22.584Z,13.20
2023-02-23T17:51:05.025Z,13.10
2023-02-23T17:53:36.171Z,13.10
2023-02-23T17:56:08.157Z,13.00
2023-02-23T17:58:46.602Z,13.00
2023-02-23T18:01:25.047Z,13.00
2023-02-23T18:06:47.188Z,12.90
2023-02-23T18:09:18.130Z,12.90
2023-02-23T18:11:51.867Z,12.90
2023-02-23T18:14:22.819Z,12.90
2023-02-23T18:16:54.685Z,12.90
2023-02-23T18:19:34.961Z,13.00
2023-02-23T18:22:10.369Z,13.00
2023-02-23T18:24:51.124Z,13.00
2023-02-23T18:27:21.972Z,12.90
2023-02-23T18:29:52.882Z,13.00
2023-02-23T18:32:27.281Z,13.00
2023-02-23T18:35:01.276Z,12.90
2023-02-23T18:37:34.189Z,12.90
2023-02-23T18:40:10.207Z,12.90
2023-02-23T18:42:45.107Z,12.90
2023-02-23T18:45:22.765Z,12.90
2023-02-23T18:47:54.069Z,12.90
2023-02-23T18:50:27.312Z,12.80
2023-02-23T18:53:05.706Z,12.80
2023-02-23T18:55:38.650Z,12.90
2023-02-23T18:58:19.855Z,12.90
2023-02-23T19:00:50.969Z,12.90
2023-02-23T19:03:24.451Z,13.00
2023-02-23T19:05:59.030Z,12.90
2023-02-23T19:08:44.321Z,13.00
2023-02-23T19:11:16.466Z,12.90
2023-02-23T19:13:49.710Z,12.90
2023-02-23T19:16:23.127Z,12.90
2023-02-23T19:18:54.296Z,12.90
2023-02-23T19:21:26.282Z,12.80
2023-02-23T19:24:04.563Z,12.80
2023-02-23T19:26:36.828Z,12.80
2023-02-23T19:29:08.922Z,12.80
2023-02-23T19:31:40.623Z,12.80
2023-02-23T19:34:14.902Z,12.70
2023-02-23T19:36:54.169Z,12.70
2023-02-23T19:39:24.973Z,12.70
2023-02-23T19:41:56.838Z,12.60
2023-02-23T19:44:28.914Z,12.60
2023-02-23T19:46:59.998Z,12.50
2023-02-23T19:49:32.134Z,12.40
2023-02-23T19:52:02.838Z,12.40
2023-02-23T19:54:37.200Z,12.40
2023-02-23T19:57:07.842Z,12.30
2023-02-23T19:59:39.767Z,12.30
2023-02-23T20:02:13.752Z,12.30
2023-02-23T20:04:45.392Z,12.30
2023-02-23T20:07:20.302Z,12.20
2023-02-23T20:09:54.480Z,12.20
2023-02-23T20:12:26.913Z,12.20
2023-02-23T20:15:01.016Z,12.10
2023-02-23T20:17:32.382Z,12.20
2023-02-23T20:20:03.277Z,12.20
2023-02-23T20:22:37.262Z,12.20
2023-02-23T20:25:09.481Z,12.20
2023-02-23T20:27:41.779Z,12.20
2023-02-23T20:30:15.613Z,12.20
2023-02-23T20:32:47.363Z,12.20
2023-02-23T20:35:20.219Z,12.30
2023-02-23T20:37:51.802Z,12.30
2023-02-23T20:40:25.268Z,12.40
2023-02-23T20:42:57.067Z,12.50
2023-02-23T20:45:30.140Z,12.50
2023-02-23T20:48:02.072Z,12.60
2023-02-23T20:50:35.314Z,12.70
2023-02-23T20:53:08.728Z,12.80
2023-02-23T20:55:39.664Z,12.90
2023-02-23T20:58:10.318Z,12.90
2023-02-23T21:00:41.985Z,13.10
2023-02-23T21:03:13.848Z,13.10
2023-02-23T21:05:45.608Z,13.20
2023-02-23T21:08:18.477Z,13.30
2023-02-23T21:10:51.772Z,13.40
2023-02-23T21:13:25.335Z,13.50
2023-02-23T21:16:03.312Z,13.60
2023-02-23T21:18:35.865Z,13.70
2023-02-23T21:21:13.276Z,13.80
2023-02-23T21:23:50.831Z,13.90
2023-02-23T21:26:23.855Z,14.00
2023-02-23T21:28:56.513Z,14.10
2023-02-23T21:31:28.887Z,14.30
2023-02-23T21:34:00.187Z,14.40
2023-02-23T21:36:31.577Z,14.60
2023-02-23T21:39:02.946Z,14.70
2023-02-23T21:41:36.541Z,14.90
2023-02-23T21:44:11.204Z,15.00
2023-02-23T21:46:42.140Z,15.20
2023-02-23T21:49:12.568Z,15.40
2023-02-23T21:51:49.213Z,15.60
2023-02-23T21:54:31.709Z,15.70
2023-02-23T21:57:05.918Z,15.90
2023-02-23T21:59:38.153Z,16.10
2023-02-23T22:02:08.627Z,16.30
2023-02-23T22:04:38.948Z,16.50
2023-02-23T22:07:10.504Z,16.60
2023-02-23T22:09:40.891Z,16.80
2023-02-23T22:12:11.168Z,17.00
2023-02-23T22:14:42.304Z,17.20
2023-02-23T22:17:13.096Z,17.30
2023-02-23T22:19:44.194Z,17.60
2023-02-23T22:22:14.777Z,17.80
2023-02-23T22:24:45.041Z,17.90
2023-02-23T22:27:15.608Z,18.10
2023-02-23T22:29:46.101Z,18.20
2023-02-23T22:32:16.567Z,18.40
2023-02-23T22:34:47.141Z,18.60
2023-02-23T22:37:17.501Z,18.60
2023-02-23T22:39:48.263Z,18.50
2023-02-23T22:42:18.571Z,18.50
2023-02-23T22:44:48.878Z,18.50
2023-02-23T22:47:19.392Z,18.50
2023-02-23T22:49:50.118Z,18.50
2023-02-23T22:52:20.362Z,18.60
2023-02-23T22:54:52.933Z,18.70
2023-02-23T22:57:23.377Z,18.80
2023-02-23T23:00:06.759Z,18.90
2023-02-23T23:02:37.933Z,18.90
2023-02-23T23:05:08.772Z,18.90
2023-02-23T23:07:39.044Z,18.90
2023-02-23T23:10:10.990Z,19.00
2023-02-23T23:12:44.540Z,19.00
2023-02-23T23:15:19.083Z,18.90
2023-02-23T23:17:52.517Z,18.90
2023-02-23T23:20:27.342Z,18.90
2023-02-23T23:22:58.938Z,19.10
2023-02-23T23:25:31.695Z,19.00
2023-02-23T23:28:02.115Z,19.10
2023-02-23T23:30:32.509Z,19.10
2023-02-23T23:33:05.672Z,19.30
2023-02-23T23:35:36.833Z,19.60
2023-02-23T23:38:08.088Z,20.00
2023-02-23T23:40:39.216Z,20.50
2023-02-23T23:43:09.501Z,20.80
2023-02-23T23:45:42.354Z,21.00
2023-02-23T23:48:12.927Z,21.10
2023-02-23T23:50:44.013Z,21.20
2023-02-23T23:53:16.259Z,21.20
2023-02-23T23:55:47.005Z,21.20
2023-02-23T23:58:20.085Z,21.30
